Time;durP1;ratioP1;P1;durP2;ratioP2;P2;SDS_P1;SDS_P2;PMS_P1;PMS_P2;Temp;Humidity;BMP_temperature;BMP_pressure;BME280_temperature;BME280_humidity;BME280_pressure;Samples;Min_cycle;Max_cycle;Signal;HPM_P1;HPM_P2
2021/05/26 00:01:35;;;;;;;4.00;1.80;;;;;;;10.90;92.00;96596.44;5029416;28;20069;-56
2021/05/26 00:04:04;;;;;;;2.42;1.92;;;;;;;10.82;93.39;96591.03;5024476;28;20112;-57
2021/05/26 00:06:32;;;;;;;5.53;2.00;;;;;;;10.96;92.86;96587.13;5030968;28;20073;-58
2021/05/26 00:09:00;;;;;;;3.28;1.80;;;;;;;10.96;91.51;96589.75;5023707;28;20073;-59
2021/05/26 00:11:28;;;;;;;2.88;2.10;;;;;;;10.88;97.15;96590.47;5025031;28;20076;-59
2021/05/26 00:13:56;;;;;;;2.88;1.75;;;;;;;10.85;93.06;96586.31;5025853;28;20071;-57
2021/05/26 00:16:25;;;;;;;2.33;1.80;;;;;;;10.96;93.87;96574.75;5027316;28;20064;-58
2021/05/26 00:18:54;;;;;;;2.45;2.00;;;;;;;10.95;94.79;96575.75;5026416;28;20088;-57
2021/05/26 00:21:24;;;;;;;3.35;2.00;;;;;;;11.02;93.16;96576.00;5028077;28;20069;-59
2021/05/26 00:23:52;;;;;;;2.45;1.73;;;;;;;10.92;94.12;96573.38;5027458;28;20077;-58
2021/05/26 00:26:20;;;;;;;1.98;1.75;;;;;;;10.98;95.38;96569.31;5026922;28;20065;-57
2021/05/26 00:28:48;;;;;;;2.72;1.85;;;;;;;10.90;98.14;96560.31;5030536;28;20071;-59
2021/05/26 00:31:20;;;;;;;4.63;2.33;;;;;;;10.90;96.51;96562.97;5023795;28;20064;-55
2021/05/26 00:33:49;;;;;;;3.78;2.15;;;;;;;10.84;94.94;96560.91;5029602;28;20077;-56
2021/05/26 00:36:17;;;;;;;4.10;2.10;;;;;;;10.83;94.77;96559.22;5023321;28;21596;-55
2021/05/26 00:38:47;;;;;;;3.22;1.90;;;;;;;10.89;93.57;96552.56;5023190;28;20072;-56
2021/05/26 00:41:16;;;;;;;2.33;2.13;;;;;;;10.92;93.32;96554.91;5026281;28;20049;-58
2021/05/26 00:43:45;;;;;;;4.65;1.88;;;;;;;10.86;95.15;96556.31;5027884;28;20073;-53
2021/05/26 00:46:12;;;;;;;4.05;1.88;;;;;;;10.71;96.91;96554.28;5023335;28;20527;-58
2021/05/26 00:48:40;;;;;;;3.25;2.10;;;;;;;10.63;100.00;96549.72;5030118;28;20080;-58
2021/05/26 00:51:08;;;;;;;1.95;1.70;;;;;;;10.71;99.57;96541.94;5023044;28;20065;-53
2021/05/26 00:53:36;;;;;;;2.47;1.85;;;;;;;10.63;100.00;96544.44;5027719;28;20067;-58
2021/05/26 00:56:06;;;;;;;2.50;1.80;;;;;;;10.68;98.55;96543.03;5025017;28;20060;-59
2021/05/26 00:58:34;;;;;;;2.83;2.15;;;;;;;10.73;97.04;96542.59;5028533;28;20065;-59
2021/05/26 01:01:02;;;;;;;2.67;1.73;;;;;;;10.68;98.55;96534.31;5024595;28;20831;-56
2021/05/26 01:03:32;;;;;;;2.85;2.05;;;;;;;10.60;100.00;96536.84;5032095;28;20088;-54
2021/05/26 01:06:00;;;;;;;3.00;2.00;;;;;;;10.66;100.00;96529.16;5023419;28;20084;-57
2021/05/26 01:08:28;;;;;;;4.40;2.00;;;;;;;10.83;96.50;96519.66;5027825;28;20084;-58
2021/05/26 01:10:56;;;;;;;3.70;2.00;;;;;;;10.74;98.05;96519.72;5026880;28;20061;-56
2021/05/26 01:13:25;;;;;;;4.07;1.90;;;;;;;10.66;99.67;96528.31;5021592;28;20562;-58
2021/05/26 01:15:53;;;;;;;4.18;2.10;;;;;;;10.58;100.00;96523.78;5027537;28;20073;-57
2021/05/26 01:18:25;;;;;;;3.38;1.90;;;;;;;10.62;100.00;96519.88;5027225;28;20099;-57
2021/05/26 01:20:56;;;;;;;4.72;2.08;;;;;;;10.67;100.00;96516.81;5026940;28;20140;-59
2021/05/26 01:23:26;;;;;;;2.17;2.00;;;;;;;10.47;100.00;96521.31;5023651;28;20065;-57
2021/05/26 01:25:56;;;;;;;2.58;1.90;;;;;;;10.26;100.00;96515.41;5025341;28;20457;-55
2021/05/26 01:28:27;;;;;;;3.75;1.83;;;;;;;10.35;100.00;96512.72;5021154;28;20086;-59
2021/05/26 01:30:55;;;;;;;;;;;;;;;10.17;100.00;96514.38;5027234;28;20088;-58
2021/05/26 01:33:23;;;;;;;4.07;1.80;;;;;;;10.27;100.00;96514.41;5026048;28;19964;-57
2021/05/26 01:35:51;;;;;;;2.28;2.08;;;;;;;10.24;100.00;96507.59;5025591;28;20440;-56
2021/05/26 01:38:21;;;;;;;3.55;2.20;;;;;;;9.98;100.00;96499.44;5024508;28;20482;-58
2021/05/26 01:40:56;;;;;;;4.63;2.10;;;;;;;9.84;100.00;96500.72;5026318;28;20535;-57
2021/05/26 01:43:25;;;;;;;4.38;2.20;;;;;;;9.77;100.00;96499.56;5021670;28;20068;-57
2021/05/26 01:45:53;;;;;;;2.25;2.03;;;;;;;9.67;100.00;96496.97;5024537;28;20085;-56
2021/05/26 01:48:21;;;;;;;2.92;2.40;;;;;;;9.72;100.00;96494.72;5024354;28;20085;-58
2021/05/26 01:50:50;;;;;;;3.65;2.00;;;;;;;9.50;100.00;96498.47;5028441;28;20092;-58
2021/05/26 01:53:18;;;;;;;2.20;1.98;;;;;;;9.50;100.00;96498.47;5023545;28;20072;-58
2021/05/26 01:55:46;;;;;;;3.63;2.60;;;;;;;9.53;100.00;96492.06;5024936;28;20440;-57
2021/05/26 01:58:16;;;;;;;3.35;2.17;;;;;;;9.38;100.00;96486.38;5024888;28;20077;-56
2021/05/26 02:00:44;;;;;;;3.10;2.25;;;;;;;9.50;100.00;96489.75;5027922;28;20080;-58
2021/05/26 02:03:12;;;;;;;2.70;1.95;;;;;;;9.51;100.00;96480.88;5022775;28;20111;-56
2021/05/26 02:05:41;;;;;;;4.57;2.33;;;;;;;9.43;100.00;96480.72;5025823;28;20069;-54
2021/05/26 02:08:09;;;;;;;2.85;2.30;;;;;;;9.34;100.00;96482.38;5025830;28;20065;-57
2021/05/26 02:13:23;;;;;;;2.33;1.95;;;;;;;9.25;100.00;96477.91;5027282;28;20076;-58
2021/05/26 02:15:51;;;;;;;4.70;2.50;;;;;;;9.18;100.00;96480.25;5023316;28;20565;-55
2021/05/26 02:18:19;;;;;;;2.55;2.10;;;;;;;9.13;100.00;96477.22;5026616;28;20392;-60
2021/05/26 02:20:48;;;;;;;5.20;2.10;;;;;;;9.16;100.00;96487.47;5022969;28;20445;-60
2021/05/26 02:23:15;;;;;;;4.18;2.15;;;;;;;9.00;100.00;96493.22;5024887;28;20471;-59
2021/05/26 02:25:43;;;;;;;2.97;2.03;;;;;;;8.83;100.00;96487.78;5019474;28;20084;-57
2021/05/26 02:28:11;;;;;;;3.33;2.42;;;;;;;9.02;100.00;96479.97;5026670;28;21796;-57
2021/05/26 02:30:40;;;;;;;3.28;2.10;;;;;;;9.04;100.00;96478.84;5021720;28;20090;-58
2021/05/26 02:33:08;;;;;;;2.47;2.17;;;;;;;9.07;100.00;96472.47;5024973;28;20064;-53
2021/05/26 02:35:36;;;;;;;3.13;2.20;;;;;;;9.11;100.00;96471.25;5023591;28;20068;-59
2021/05/26 02:38:04;;;;;;;3.67;2.22;;;;;;;8.84;100.00;96465.75;5023907;28;20038;-59
2021/05/26 02:40:33;;;;;;;2.92;2.30;;;;;;;9.02;100.00;96479.97;5024476;28;20118;-59
2021/05/26 02:43:02;;;;;;;3.67;2.20;;;;;;;8.82;100.00;96462.47;5023923;28;20046;-59
2021/05/26 02:45:30;;;;;;;3.33;2.33;;;;;;;8.89;100.00;96456.53;5023989;28;20068;-56
2021/05/26 02:48:00;;;;;;;4.35;2.65;;;;;;;8.86;100.00;96459.41;5029348;28;20061;-53
2021/05/26 02:50:28;;;;;;;4.25;2.20;;;;;;;8.74;100.00;96456.06;5022151;28;20064;-59
2021/05/26 02:52:56;;;;;;;3.88;2.25;;;;;;;8.87;100.00;96449.72;5025721;28;20061;-58
2021/05/26 02:55:25;;;;;;;2.42;2.10;;;;;;;8.85;100.00;96457.75;5026291;28;20837;-58
2021/05/26 02:57:54;;;;;;;4.32;2.30;;;;;;;8.90;100.00;96452.91;5012622;28;20545;-60
2021/05/26 03:00:24;;;;;;;3.35;2.38;;;;;;;8.74;100.00;96445.56;5032288;28;20088;-58
2021/05/26 03:02:52;;;;;;;3.58;2.25;;;;;;;8.75;100.00;96447.22;5027851;28;20480;-56
2021/05/26 03:05:22;;;;;;;3.35;2.28;;;;;;;8.71;100.00;96453.69;5029257;28;20069;-60
2021/05/26 03:07:50;;;;;;;7.22;2.30;;;;;;;8.64;100.00;96449.13;5027118;28;20069;-60
2021/05/26 03:10:19;;;;;;;2.78;1.98;;;;;;;8.64;100.00;96442.06;5027924;28;20077;-58
2021/05/26 03:12:47;;;;;;;2.55;2.15;;;;;;;8.69;100.00;96439.84;5030133;28;20447;-59
2021/05/26 03:15:17;;;;;;;2.72;2.17;;;;;;;8.56;100.00;96439.25;5028451;28;20069;-59
2021/05/26 03:17:45;;;;;;;2.53;2.30;;;;;;;8.56;100.00;96442.69;5024958;28;20072;-60
2021/05/26 03:20:15;;;;;;;3.85;2.42;;;;;;;8.60;100.00;96442.44;5030052;28;20065;-60
2021/05/26 03:22:45;;;;;;;3.83;2.45;;;;;;;8.61;100.00;96438.88;5025152;28;20076;-57
2021/05/26 03:25:14;;;;;;;;;;;;;;;8.42;100.00;96442.22;5029254;28;20057;-57
2021/05/26 03:27:43;;;;;;;3.15;2.17;;;;;;;8.38;100.00;96443.47;5033276;28;19959;-59
2021/05/26 03:30:13;;;;;;;3.67;2.20;;;;;;;8.42;100.00;96434.34;5024188;28;20064;-59
2021/05/26 03:32:41;;;;;;;2.83;2.20;;;;;;;8.36;100.00;96437.47;5026093;28;20076;-60
2021/05/26 03:35:11;;;;;;;2.55;2.30;;;;;;;8.26;100.00;96440.91;5027754;28;20072;-59
2021/05/26 03:37:40;;;;;;;3.63;2.50;;;;;;;8.19;100.00;96436.28;5024372;28;20680;-57
2021/05/26 03:40:11;;;;;;;2.78;2.22;;;;;;;8.19;100.00;96437.13;5028476;28;20068;-59
2021/05/26 03:42:40;;;;;;;3.10;2.28;;;;;;;8.44;100.00;96442.94;5029184;28;20543;-56
2021/05/26 03:45:12;;;;;;;5.07;2.28;;;;;;;8.43;100.00;96436.84;5028436;28;20068;-59
2021/05/26 03:47:41;;;;;;;3.20;2.20;;;;;;;8.52;100.00;96435.22;5024663;28;20041;-58
2021/05/26 03:50:12;;;;;;;3.35;2.42;;;;;;;8.64;100.00;96439.44;5028368;28;20459;-59
2021/05/26 03:52:42;;;;;;;3.85;2.45;;;;;;;8.94;100.00;96425.38;5022546;28;20107;-59
2021/05/26 03:55:13;;;;;;;2.55;2.35;;;;;;;9.93;100.00;96428.72;5027119;28;20080;-57
2021/05/26 03:57:42;;;;;;;2.78;2.40;;;;;;;10.98;100.00;96414.50;5027377;28;20519;-59
2021/05/26 04:00:14;;;;;;;2.13;1.92;;;;;;;11.13;100.00;96410.34;5026280;28;20061;-59
2021/05/26 04:02:42;;;;;;;2.45;1.85;;;;;;;10.54;100.00;96424.84;5025186;28;20069;-56
2021/05/26 04:05:10;;;;;;;4.43;2.20;;;;;;;11.58;100.00;96417.38;5030110;28;20069;-59
2021/05/26 04:07:39;;;;;;;2.38;2.00;;;;;;;12.86;85.30;96405.31;5026642;28;20511;-60
2021/05/26 04:10:08;;;;;;;3.85;1.80;;;;;;;12.81;85.98;96412.91;5026624;28;20080;-60
2021/05/26 04:12:37;;;;;;;3.78;2.25;;;;;;;13.00;85.62;96409.97;5031212;28;20085;-59
2021/05/26 04:15:07;;;;;;;2.40;2.20;;;;;;;14.28;75.86;96407.78;5022963;28;20131;-59
2021/05/26 04:17:35;;;;;;;2.90;1.80;;;;;;;14.50;68.92;96408.91;5026229;28;20103;-58
2021/05/26 04:20:04;;;;;;;3.03;1.80;;;;;;;14.37;70.58;96408.59;5025741;28;20072;-58
2021/05/26 04:22:33;;;;;;;2.85;2.00;;;;;;;14.96;67.53;96404.56;5027008;28;20076;-57
2021/05/26 04:25:02;;;;;;;2.58;1.50;;;;;;;15.56;62.33;96397.78;5024487;28;20080;-60
2021/05/26 04:27:30;;;;;;;2.38;1.70;;;;;;;16.05;57.09;96405.38;5031704;28;20070;-60
2021/05/26 04:29:59;;;;;;;2.33;1.50;;;;;;;15.57;57.95;96403.91;5025647;28;20076;-61
2021/05/26 04:32:27;;;;;;;2.60;1.70;;;;;;;14.88;63.73;96399.31;5030219;28;20046;-60
2021/05/26 04:34:55;;;;;;;3.55;1.95;;;;;;;15.30;61.75;96405.25;5026618;28;20080;-60
2021/05/26 04:37:24;;;;;;;4.40;1.77;;;;;;;14.17;69.01;96406.28;5027043;28;20483;-56
2021/05/26 04:39:52;;;;;;;2.75;1.75;;;;;;;13.31;82.10;96412.06;5027859;28;20085;-61
2021/05/26 04:42:20;;;;;;;5.25;1.80;;;;;;;12.72;89.10;96419.16;5030788;28;20073;-54
2021/05/26 04:44:48;;;;;;;2.25;1.80;;;;;;;12.45;94.84;96425.47;5025186;28;20065;-58
2021/05/26 04:47:17;;;;;;;3.13;2.00;;;;;;;12.63;94.56;96413.00;5029120;28;20075;-59
2021/05/26 04:49:45;;;;;;;4.30;2.13;;;;;;;12.52;94.52;96407.97;5028215;28;20068;-59
2021/05/26 04:52:13;;;;;;;3.53;1.63;;;;;;;12.54;96.85;96408.66;5027371;28;20456;-58
2021/05/26 04:54:41;;;;;;;3.05;1.90;;;;;;;13.35;86.03;96410.78;5031264;28;20081;-56
2021/05/26 04:57:09;;;;;;;2.53;2.03;;;;;;;13.58;86.60;96416.25;5025123;28;20469;-58
2021/05/26 04:59:37;;;;;;;4.22;2.15;;;;;;;14.31;77.33;96414.56;5017954;28;20076;-60
2021/05/26 05:02:05;;;;;;;2.25;2.00;;;;;;;13.64;80.64;96406.84;5027268;28;20493;-60
2021/05/26 05:04:34;;;;;;;3.22;1.95;;;;;;;13.54;84.26;96412.28;5027024;28;20314;-60
2021/05/26 05:07:02;;;;;;;3.88;2.35;;;;;;;14.09;78.86;96405.50;5030078;28;20073;-55
2021/05/26 05:09:30;;;;;;;6.03;2.10;;;;;;;13.84;84.25;96412.63;5031765;28;20088;-58
2021/05/26 05:11:58;;;;;;;6.88;2.47;;;;;;;13.70;84.80;96412.31;5023810;28;20057;-58
2021/05/26 05:14:26;;;;;;;4.15;2.28;;;;;;;13.35;88.92;96418.72;5030595;28;20068;-60
2021/05/26 05:16:54;;;;;;;8.02;2.40;;;;;;;12.93;99.57;96419.56;5025644;28;20072;-59
2021/05/26 05:19:22;;;;;;;6.97;2.42;;;;;;;13.15;96.04;96412.03;5025435;28;20492;-60
2021/05/26 05:21:52;;;;;;;4.20;2.20;;;;;;;13.45;95.95;96405.31;5026313;28;20088;-59
2021/05/26 05:24:20;;;;;;;5.90;2.30;;;;;;;13.10;99.67;96411.66;5027822;28;20402;-59
2021/05/26 05:26:49;;;;;;;6.85;2.47;;;;;;;13.83;89.76;96403.84;5023304;28;20073;-59
2021/05/26 05:29:17;;;;;;;10.13;2.40;;;;;;;13.29;98.37;96412.25;5027273;28;20066;-55
2021/05/26 05:31:44;;;;;;;4.43;2.00;;;;;;;13.40;100.00;96413.75;5024325;28;20064;-59
2021/05/26 05:34:12;;;;;;;9.05;2.20;;;;;;;13.99;94.59;96413.63;5024238;28;20073;-59
2021/05/26 05:36:40;;;;;;;2.75;1.70;;;;;;;13.84;95.72;96412.63;5025508;28;20825;-59
2021/05/26 05:39:09;;;;;;;3.30;1.90;;;;;;;13.67;98.67;96401.22;5020247;28;20065;-61
2021/05/26 05:41:37;;;;;;;4.05;1.80;;;;;;;14.39;89.23;96406.59;5023967;28;20073;-60
2021/05/26 05:44:06;;;;;;;9.48;2.30;;;;;;;14.38;89.82;96400.47;5024667;28;20537;-60
2021/05/26 05:46:34;;;;;;;9.45;2.35;;;;;;;14.31;86.35;96410.06;5025261;28;20073;-59
2021/05/26 05:49:03;;;;;;;8.07;2.40;;;;;;;14.45;86.16;96395.28;5024481;28;20089;-61
2021/05/26 05:51:31;;;;;;;4.75;1.90;;;;;;;14.89;84.21;96400.13;5028378;28;20077;-60
2021/05/26 05:53:59;;;;;;;5.03;1.90;;;;;;;14.81;82.02;96393.03;5021245;28;20140;-59
2021/05/26 05:56:28;;;;;;;2.75;1.85;;;;;;;14.14;94.08;96400.50;5024783;28;20596;-59
2021/05/26 05:58:56;;;;;;;7.18;2.20;;;;;;;14.43;88.38;96394.66;5020107;28;20523;-58
2021/05/26 06:01:24;;;;;;;4.82;2.10;;;;;;;14.57;81.60;96399.28;5025481;28;20076;-57
2021/05/26 06:03:52;;;;;;;4.47;1.75;;;;;;;14.25;88.33;96397.50;5025255;28;20079;-58
2021/05/26 06:06:20;;;;;;;3.42;1.75;;;;;;;14.13;92.26;96390.91;5027954;28;20065;-60
2021/05/26 06:08:48;;;;;;;4.65;1.90;;;;;;;14.59;86.36;96394.63;5023798;28;20076;-59
2021/05/26 06:11:16;;;;;;;1.88;1.70;;;;;;;14.42;89.78;96400.97;5025409;28;20442;-60
2021/05/26 06:13:48;;;;;;;3.22;1.58;;;;;;;13.82;92.43;96396.88;5019182;28;20520;-59
2021/05/26 06:16:16;;;;;;;2.55;1.60;;;;;;;14.73;76.66;96398.41;5034374;28;20092;-59
2021/05/26 06:18:44;;;;;;;2.55;1.70;;;;;;;14.41;80.86;96399.28;5025859;28;20084;-60
2021/05/26 06:21:12;;;;;;;2.67;1.70;;;;;;;14.66;80.68;96392.13;5022495;28;20500;-58
2021/05/26 06:23:40;;;;;;;2.13;1.70;;;;;;;15.01;78.80;96388.16;5023796;28;20294;-59
2021/05/26 06:26:08;;;;;;;4.25;1.90;;;;;;;15.15;73.74;96386.56;5011556;28;20060;-60
2021/05/26 06:28:36;;;;;;;2.55;1.70;;;;;;;15.14;76.89;96382.25;5022220;28;20072;-60
2021/05/26 06:31:05;;;;;;;3.58;1.70;;;;;;;14.88;79.08;96379.91;5024622;28;20525;-60
2021/05/26 06:33:33;;;;;;;3.80;1.60;;;;;;;14.95;75.17;96386.19;5023367;28;20081;-60
2021/05/26 06:36:02;;;;;;;7.25;1.50;;;;;;;15.55;71.70;96379.31;5023939;28;20077;-60
2021/05/26 06:38:30;;;;;;;3.42;1.70;;;;;;;15.49;71.80;96372.09;5026275;28;20550;-59
2021/05/26 06:40:58;;;;;;;5.28;1.60;;;;;;;15.53;65.43;96373.38;5020969;28;20087;-59
2021/05/26 06:43:26;;;;;;;2.50;1.45;;;;;;;16.19;62.84;96378.97;5024887;28;20061;-59
2021/05/26 06:45:54;;;;;;;2.95;1.58;;;;;;;16.04;66.37;96376.31;5024037;28;20081;-58
2021/05/26 06:48:24;;;;;;;4.70;1.60;;;;;;;16.28;65.41;96365.41;5025726;28;20081;-56
2021/05/26 06:50:52;;;;;;;3.53;1.70;;;;;;;16.79;62.58;96365.53;5022207;28;20519;-56
2021/05/26 06:53:20;;;;;;;7.57;1.58;;;;;;;17.53;56.76;96357.31;5023011;28;20452;-58
2021/05/26 06:55:48;;;;;;;5.60;1.60;;;;;;;17.26;58.45;96356.22;5020715;28;20076;-58
2021/05/26 06:58:16;;;;;;;4.82;1.40;;;;;;;17.09;54.10;96344.97;5024496;28;20082;-56
2021/05/26 07:00:44;;;;;;;2.05;1.30;;;;;;;17.29;56.68;96347.84;5024273;28;20084;-57
2021/05/26 07:03:12;;;;;;;2.47;1.38;;;;;;;17.25;61.20;96356.41;5022993;28;20069;-58
2021/05/26 07:05:41;;;;;;;2.90;1.40;;;;;;;17.84;54.26;96358.84;5021630;28;20064;-58
2021/05/26 07:08:09;;;;;;;7.68;1.92;;;;;;;17.52;56.95;96350.34;5024552;28;20069;-58
2021/05/26 07:10:39;;;;;;;7.07;1.77;;;;;;;17.50;54.44;96346.22;5020075;28;20080;-58
2021/05/26 07:13:07;;;;;;;3.80;1.50;;;;;;;18.37;54.95;96342.38;5026667;28;20504;-57
2021/05/26 07:15:35;;;;;;;3.20;1.73;;;;;;;18.02;54.46;96342.38;5023833;28;20499;-56
2021/05/26 07:18:03;;;;;;;3.72;1.40;;;;;;;18.22;51.75;96339.84;5023919;28;20065;-57
2021/05/26 07:20:32;;;;;;;2.45;1.20;;;;;;;17.09;46.50;96341.47;4979376;28;1194300;-57
2021/05/26 07:23:01;;;;;;;2.05;1.20;;;;;;;17.23;46.63;96345.09;5024699;28;20080;-55
2021/05/26 07:25:30;;;;;;;1.60;1.20;;;;;;;17.88;47.31;96333.44;5024592;28;20076;-58
2021/05/26 07:27:58;;;;;;;3.53;1.35;;;;;;;17.13;49.47;96341.94;5022271;28;20081;-54
2021/05/26 07:30:26;;;;;;;1.35;1.02;;;;;;;17.32;47.69;96338.66;5029737;28;20085;-55
2021/05/26 07:32:54;;;;;;;1.50;1.10;;;;;;;17.51;48.38;96332.66;5027042;28;20648;-57
2021/05/26 07:35:23;;;;;;;2.97;1.20;;;;;;;17.43;46.36;96332.81;5027374;28;20056;-58
2021/05/26 07:37:51;;;;;;;1.90;1.20;;;;;;;17.68;48.85;96332.41;5026134;28;20061;-57
2021/05/26 07:40:38;;;;;;;3.17;1.40;;;;;;;17.45;51.26;96329.97;5032035;28;20044;-56
2021/05/26 07:43:10;;;;;;;4.47;1.23;;;;;;;17.09;51.41;96322.81;5026873;28;20077;-56
2021/05/26 07:45:38;;;;;;;1.40;1.10;;;;;;;17.03;54.86;96320.91;5029245;28;20077;-59
2021/05/26 07:48:07;;;;;;;2.50;1.15;;;;;;;17.52;52.95;96322.84;5026964;28;20274;-60
2021/05/26 07:50:35;;;;;;;2.58;1.13;;;;;;;17.44;50.42;96315.78;5027403;28;20065;-60
2021/05/26 07:53:04;;;;;;;1.30;1.20;;;;;;;17.99;48.98;96319.56;5025060;28;20467;-60
2021/05/26 07:55:32;;;;;;;1.88;1.10;;;;;;;17.29;52.45;96309.72;5026525;28;20519;-59
2021/05/26 07:58:01;;;;;;;3.42;1.40;;;;;;;17.34;51.88;96309.94;5025409;28;20068;-59
2021/05/26 08:00:30;;;;;;;1.85;1.27;;;;;;;17.05;49.86;96295.75;5030270;28;20093;-60
2021/05/26 08:02:58;;;;;;;3.88;1.48;;;;;;;17.51;52.13;96302.53;5026804;28;20491;-59
2021/05/26 08:05:26;;;;;;;4.18;1.20;;;;;;;17.52;60.75;96298.88;5024817;28;20065;-55
2021/05/26 08:07:54;;;;;;;3.03;1.30;;;;;;;17.17;52.56;96300.56;5026188;28;20430;-57
2021/05/26 08:10:22;;;;;;;3.45;1.40;;;;;;;17.99;52.75;96289.38;5027865;28;20076;-55
2021/05/26 08:12:50;;;;;;;3.25;1.17;;;;;;;17.56;52.12;96292.94;5027636;28;20088;-55
2021/05/26 08:15:20;;;;;;;1.83;1.25;;;;;;;17.86;49.76;96294.63;5031729;28;20154;-57
2021/05/26 08:17:48;;;;;;;1.85;1.10;;;;;;;17.67;52.42;96288.09;5025440;28;20065;-55
2021/05/26 08:20:16;;;;;;;2.50;1.25;;;;;;;17.35;52.32;96284.16;5025382;28;20080;-56
2021/05/26 08:22:44;;;;;;;1.25;1.00;;;;;;;17.75;52.79;96283.44;5028009;28;20072;-58
2021/05/26 08:25:12;;;;;;;1.20;1.00;;;;;;;18.34;49.61;96284.03;5024150;28;20068;-56
2021/05/26 08:27:40;;;;;;;1.52;1.10;;;;;;;17.90;48.78;96285.25;5029855;28;20258;-57
2021/05/26 08:30:09;;;;;;;3.83;1.20;;;;;;;17.90;48.42;96282.56;5028364;28;20471;-58
2021/05/26 08:32:38;;;;;;;4.00;1.10;;;;;;;17.92;53.68;96283.19;5025793;28;20076;-58
2021/05/26 08:35:08;;;;;;;2.17;1.20;;;;;;;17.79;49.37;96286.59;5024869;28;20073;-56
2021/05/26 08:37:36;;;;;;;2.05;1.08;;;;;;;17.43;53.75;96279.50;5029353;28;20577;-58
2021/05/26 08:40:05;;;;;;;4.05;1.30;;;;;;;16.93;49.87;96275.09;5023249;28;20092;-57
2021/05/26 08:42:34;;;;;;;2.42;1.20;;;;;;;17.82;51.63;96272.84;5030818;28;20073;-58
2021/05/26 08:45:04;;;;;;;2.80;1.05;;;;;;;18.15;50.99;96275.75;5024975;28;20069;-58
2021/05/26 08:47:34;;;;;;;4.03;1.27;;;;;;;17.75;53.16;96278.09;5026216;28;20072;-58
2021/05/26 08:50:04;;;;;;;2.58;1.23;;;;;;;17.75;59.25;96266.59;5025969;28;20455;-58
2021/05/26 08:52:32;;;;;;;2.83;1.13;;;;;;;18.80;46.67;96270.94;5026633;28;20553;-56
2021/05/26 08:55:01;;;;;;;2.72;1.00;;;;;;;18.24;51.48;96258.56;5022536;28;20089;-57
2021/05/26 08:57:30;;;;;;;3.95;1.20;;;;;;;18.39;47.29;96249.59;5033937;28;20455;-58
2021/05/26 08:59:58;;;;;;;2.78;1.40;;;;;;;18.32;48.00;96254.06;5025160;28;20077;-57
2021/05/26 09:02:26;;;;;;;2.95;1.27;;;;;;;17.49;50.51;96256.59;5027211;28;20476;-57
2021/05/26 09:04:54;;;;;;;2.85;1.27;;;;;;;17.49;49.50;96254.75;5022451;28;20565;-57
2021/05/26 09:07:24;;;;;;;3.42;1.20;;;;;;;17.77;52.58;96261.94;5023955;28;21434;-57
2021/05/26 09:09:54;;;;;;;2.85;1.30;;;;;;;17.69;55.29;96248.75;5025051;28;20085;-58
2021/05/26 09:12:30;;;;;;;2.90;1.08;;;;;;;17.36;48.19;96248.47;5029404;28;20077;-56
2021/05/26 09:15:05;;;;;;;3.35;1.30;;;;;;;17.33;51.27;96247.81;5017817;28;20058;-59
2021/05/26 09:17:33;;;;;;;1.50;1.00;;;;;;;17.46;53.29;96247.13;5026574;28;20073;-55
2021/05/26 09:20:15;;;;;;;2.83;1.30;;;;;;;17.46;53.37;96249.78;5023495;28;20068;-59
2021/05/26 09:23:08;;;;;;;3.78;1.20;;;;;;;17.54;49.84;96252.31;5024826;28;20065;-59
2021/05/26 09:25:38;;;;;;;2.97;1.27;;;;;;;17.80;49.19;96250.91;5022712;28;20069;-58
2021/05/26 09:28:27;;;;;;;1.92;1.10;;;;;;;18.10;45.79;96246.16;5024841;28;20468;-58
2021/05/26 09:30:57;;;;;;;4.97;1.30;;;;;;;18.05;46.42;96245.09;5022902;28;20104;-58
2021/05/26 09:33:26;;;;;;;;;;;;;;;18.38;46.83;96242.59;5029601;28;20164;-59
2021/05/26 09:36:08;;;;;;;3.63;1.50;;;;;;;18.55;48.13;96237.72;5025151;28;19975;-59
2021/05/26 09:38:37;;;;;;;3.13;1.10;;;;;;;17.68;48.41;96226.56;5025424;28;20068;-56
2021/05/26 09:41:17;;;;;;;3.38;1.10;;;;;;;18.38;48.66;96218.56;5024346;28;20479;-59
2021/05/26 09:43:47;;;;;;;2.35;1.42;;;;;;;18.66;48.03;96224.63;5027088;28;20075;-59
2021/05/26 09:46:33;;;;;;;;;;;;;;;19.17;44.82;96218.78;5024688;28;20081;-58
2021/05/26 09:49:29;;;;;;;2.17;1.00;;;;;;;18.90;46.83;96211.78;5022163;28;19928;-58
2021/05/26 09:51:58;;;;;;;3.03;1.40;;;;;;;18.65;45.03;96208.78;5022972;28;20349;-57
2021/05/26 09:54:28;;;;;;;3.72;1.00;;;;;;;19.13;47.38;96209.53;5027210;28;20125;-58
2021/05/26 09:57:06;;;;;;;1.20;1.00;;;;;;;19.23;45.15;96219.81;5022790;28;20072;-59
2021/05/26 09:59:36;;;;;;;4.88;1.20;;;;;;;19.20;45.02;96228.22;5024800;28;20057;-59
2021/05/26 10:02:06;;;;;;;2.10;1.10;;;;;;;19.40;44.72;96231.75;5022883;28;20073;-58
2021/05/26 10:04:36;;;;;;;5.93;1.60;;;;;;;19.19;44.99;96215.91;5023943;28;20519;-59
2021/05/26 10:07:05;;;;;;;1.92;1.30;;;;;;;19.44;42.52;96224.13;5026480;28;20073;-59
2021/05/26 10:09:34;;;;;;;3.80;1.40;;;;;;;19.34;43.37;96221.03;5028426;28;20077;-57
2021/05/26 10:12:04;;;;;;;1.63;1.00;;;;;;;19.90;44.50;96218.78;5024638;28;20463;-55
2021/05/26 10:14:35;;;;;;;1.90;1.02;;;;;;;19.48;43.06;96219.19;5025426;28;20069;-59
2021/05/26 10:17:08;;;;;;;2.75;1.10;;;;;;;20.20;42.82;96202.25;5020956;28;20069;-59
2021/05/26 10:19:36;;;;;;;2.10;1.15;;;;;;;20.16;42.51;96206.34;5024636;28;20570;-57
2021/05/26 10:22:04;;;;;;;3.90;1.33;;;;;;;19.86;43.10;96214.88;5025002;28;20566;-58
2021/05/26 10:24:34;;;;;;;2.03;1.20;;;;;;;19.55;44.21;96206.66;5021398;28;20085;-59
2021/05/26 10:27:02;;;;;;;4.97;1.33;;;;;;;20.05;42.42;96205.16;5025853;28;20080;-59
2021/05/26 10:29:35;;;;;;;2.53;1.30;;;;;;;19.52;44.35;96217.78;5022611;28;20520;-59
2021/05/26 10:32:05;;;;;;;2.90;1.20;;;;;;;18.94;45.68;96218.34;5020043;28;20576;-59
2021/05/26 10:35:03;;;;;;;3.53;1.40;;;;;;;18.68;45.08;96222.56;5022667;28;20061;-59
2021/05/26 10:37:33;;;;;;;1.95;1.10;;;;;;;18.58;50.36;96219.47;5008151;28;20061;-58
2021/05/26 10:40:38;;;;;;;4.45;1.45;;;;;;;19.04;46.80;96215.28;5022152;28;20073;-58
2021/05/26 10:43:31;;;;;;;2.83;1.40;;;;;;;18.34;49.27;96215.47;5025873;28;20096;-59
2021/05/26 10:46:01;;;;;;;3.47;1.63;;;;;;;18.30;50.46;96219.53;5025571;28;20077;-59
2021/05/26 10:49:11;;;;;;;3.07;1.47;;;;;;;18.59;50.51;96222.97;5026623;28;20100;-56
2021/05/26 10:52:07;;;;;;;3.30;1.52;;;;;;;18.27;49.35;96209.25;5019438;28;20465;-58
2021/05/26 10:55:04;;;;;;;2.65;1.40;;;;;;;18.02;48.96;96214.28;5022409;28;20689;-59
2021/05/26 10:58:12;;;;;;;4.65;1.60;;;;;;;18.25;54.73;96209.47;5023971;28;20123;-59
2021/05/26 11:00:42;;;;;;;3.58;1.33;;;;;;;18.08;57.66;96202.00;5018579;28;20390;-58
2021/05/26 11:03:40;;;;;;;6.38;1.50;;;;;;;17.89;48.69;96214.19;5024824;28;20069;-59
2021/05/26 11:06:39;;;;;;;3.28;1.30;;;;;;;16.90;50.34;96191.09;5028978;28;20048;-59
2021/05/26 11:09:08;;;;;;;2.60;1.17;;;;;;;17.18;52.30;96190.31;5029609;28;20152;-58
2021/05/26 11:11:48;;;;;;;2.25;1.40;;;;;;;17.39;48.43;96182.28;5025549;28;20442;-59
2021/05/26 11:14:32;;;;;;;3.05;1.50;;;;;;;17.42;51.14;96181.06;5017926;28;20053;-59
2021/05/26 11:17:36;;;;;;;2.60;1.20;;;;;;;17.60;48.88;96169.91;5029949;28;20460;-59
2021/05/26 11:20:15;;;;;;;5.72;1.27;;;;;;;17.14;50.52;96171.22;5024195;28;20060;-59
2021/05/26 11:22:44;;;;;;;1.65;1.10;;;;;;;17.20;47.25;96165.09;5029044;28;20060;-57
2021/05/26 11:25:13;;;;;;;5.15;1.20;;;;;;;16.99;47.64;96181.13;5026267;28;21863;-54
2021/05/26 11:27:48;;;;;;;16.90;2.25;;;;;;;16.98;48.37;96169.66;5030654;28;20081;-59
2021/05/26 11:30:24;;;;;;;4.88;1.05;;;;;;;16.59;53.49;96170.91;5026280;28;20065;-59
2021/05/26 11:32:55;;;;;;;1.83;1.08;;;;;;;16.52;53.48;96185.16;5027813;28;20061;-56
2021/05/26 11:35:24;;;;;;;1.38;1.10;;;;;;;16.23;54.33;96183.38;5022969;28;20088;-58
2021/05/26 11:37:52;;;;;;;2.15;1.00;;;;;;;16.37;54.34;96187.84;5027939;28;20061;-59
2021/05/26 11:40:28;;;;;;;2.65;1.20;;;;;;;16.51;59.38;96186.97;5029429;28;20069;-56
2021/05/26 11:42:59;;;;;;;2.83;1.30;;;;;;;16.28;64.02;96186.31;5027025;28;20068;-53
2021/05/26 11:45:28;;;;;;;4.75;1.30;;;;;;;15.96;70.72;96190.19;5030745;28;20100;-57
2021/05/26 11:47:58;;;;;;;4.18;1.27;;;;;;;16.05;78.13;96195.22;5009431;28;20057;-58
2021/05/26 11:50:30;;;;;;;2.53;1.30;;;;;;;16.24;79.29;96185.88;5024901;28;20061;-53
2021/05/26 11:53:17;;;;;;;2.42;1.20;;;;;;;16.07;89.01;96193.22;5026288;28;20443;-58